Time;durP1;ratioP1;P1;durP2;ratioP2;P2;SDS_P1;SDS_P2;PMS_P1;PMS_P2;Temp;Humidity;BMP_temperature;BMP_pressure;BME280_temperature;BME280_humidity;BME280_pressure;Samples;Min_cycle;Max_cycle;Signal;HPM_P1;HPM_P2
2021/07/04 00:01:28;;;;;;;9.90;9.00;;;17.90;99.90;;;;;;5092021;28;20648;-72
2021/07/04 00:03:54;;;;;;;9.83;8.43;;;17.90;99.90;;;;;;5091796;28;20204;-72
2021/07/04 00:06:19;;;;;;;10.80;8.50;;;17.80;99.90;;;;;;5091998;28;20233;-72
2021/07/04 00:08:45;;;;;;;10.03;8.97;;;17.80;99.90;;;;;;5092381;28;20295;-74
2021/07/04 00:11:10;;;;;;;9.83;8.83;;;17.70;99.90;;;;;;5091544;28;20223;-73
2021/07/04 00:13:37;;;;;;;9.77;8.77;;;17.70;99.90;;;;;;5092244;28;20184;-72
2021/07/04 00:16:03;;;;;;;10.87;9.73;;;17.60;99.90;;;;;;5091509;28;20176;-72
2021/07/04 00:18:31;;;;;;;10.10;9.10;;;17.60;99.90;;;;;;5091814;28;20232;-73
2021/07/04 00:20:57;;;;;;;10.63;9.40;;;17.60;99.90;;;;;;5091510;28;20168;-71
2021/07/04 00:23:25;;;;;;;9.47;8.60;;;17.50;99.90;;;;;;5091774;28;20544;-72
2021/07/04 00:25:52;;;;;;;9.43;8.53;;;17.50;99.90;;;;;;5091908;28;20176;-72
2021/07/04 00:28:18;;;;;;;9.13;8.27;;;17.50;99.90;;;;;;5091065;28;20656;-72
2021/07/04 00:30:44;;;;;;;10.30;8.20;;;17.50;99.90;;;;;;5090618;28;20194;-71
2021/07/04 00:33:10;;;;;;;9.07;7.43;;;17.50;99.90;;;;;;5089990;28;20259;-73
2021/07/04 00:35:36;;;;;;;9.10;7.70;;;17.50;99.90;;;;;;5091520;28;20779;-73
2021/07/04 00:38:07;;;;;;;8.53;7.63;;;17.50;99.90;;;;;;5091232;28;20181;-71
2021/07/04 00:40:32;;;;;;;7.60;6.90;;;17.60;99.90;;;;;;5091571;28;20179;-72
2021/07/04 00:42:58;;;;;;;8.23;7.40;;;17.60;99.90;;;;;;5091916;28;20176;-73
2021/07/04 00:45:26;;;;;;;7.73;6.93;;;17.60;99.90;;;;;;5091921;28;20247;-72
2021/07/04 00:47:52;;;;;;;8.10;7.40;;;17.60;99.90;;;;;;5091090;28;20231;-71
2021/07/04 00:50:20;;;;;;;8.30;7.60;;;17.60;99.90;;;;;;5090794;28;20223;-71
2021/07/04 00:52:46;;;;;;;8.73;7.10;;;17.70;99.90;;;;;;5090990;28;20181;-72
2021/07/04 00:55:16;;;;;;;9.50;7.80;;;17.70;99.90;;;;;;5091406;28;20596;-72
2021/07/04 00:57:45;;;;;;;8.27;7.47;;;17.70;99.90;;;;;;5091696;28;20263;-72
2021/07/04 01:00:20;;;;;;;8.37;7.57;;;17.70;99.90;;;;;;5091324;28;20188;-72
2021/07/04 01:02:46;;;;;;;8.63;7.90;;;17.70;99.90;;;;;;5091093;28;20203;-71
2021/07/04 01:05:17;;;;;;;8.83;7.93;;;17.70;99.90;;;;;;5091622;28;20199;-72
2021/07/04 01:07:44;;;;;;;8.03;7.33;;;17.70;99.90;;;;;;5093551;28;20271;-73
2021/07/04 01:10:12;;;;;;;9.00;7.80;;;17.70;99.90;;;;;;5101730;28;20200;-72
2021/07/04 01:26:19;;;;;;;8.53;7.13;;;17.80;99.90;;;;;;5068759;28;20272;-72
2021/07/04 01:28:45;;;;;;;8.17;7.37;;;17.80;99.90;;;;;;5069983;28;20303;-72
2021/07/04 01:31:10;;;;;;;7.53;6.80;;;17.70;99.90;;;;;;5069984;28;20181;-72
2021/07/04 01:33:36;;;;;;;8.13;7.33;;;17.70;99.90;;;;;;5070509;28;20713;-72
2021/07/04 01:36:03;;;;;;;7.93;7.27;;;17.70;99.90;;;;;;5076371;28;20181;-72
2021/07/04 01:38:28;;;;;;;8.53;7.63;;;17.70;99.90;;;;;;5082696;28;20184;-71
2021/07/04 01:40:54;;;;;;;9.53;7.67;;;17.70;99.90;;;;;;5069883;28;20184;-72
2021/07/04 01:43:20;;;;;;;9.50;7.87;;;17.70;99.90;;;;;;5074182;28;20176;-72
2021/07/04 01:45:46;;;;;;;8.90;8.00;;;17.70;99.90;;;;;;5073974;28;20173;-72
2021/07/04 01:48:13;;;;;;;10.87;8.40;;;17.60;99.90;;;;;;5074037;28;20173;-72
2021/07/04 01:50:42;;;;;;;9.70;8.03;;;17.60;99.90;;;;;;5073776;28;20605;-72
2021/07/04 01:53:08;;;;;;;9.67;8.77;;;17.60;99.90;;;;;;5073979;28;20634;-72
2021/07/04 01:55:33;;;;;;;10.60;9.50;;;17.60;99.90;;;;;;5073591;28;20181;-72
2021/07/04 01:57:59;;;;;;;13.50;9.63;;;17.60;99.90;;;;;;5073953;28;20290;-72
2021/07/04 02:00:28;;;;;;;11.37;9.20;;;17.60;99.90;;;;;;5073418;28;20197;-72
2021/07/04 02:02:55;;;;;;;10.53;9.07;;;17.60;99.90;;;;;;5073772;28;20181;-72
2021/07/04 02:05:22;;;;;;;12.70;10.20;;;17.60;99.90;;;;;;5074015;28;20185;-72
2021/07/04 02:07:48;;;;;;;12.17;9.50;;;17.60;99.90;;;;;;5073814;28;20653;-72
2021/07/04 02:10:24;;;;;;;11.10;9.23;;;17.60;99.90;;;;;;5073290;28;20673;-72
2021/07/04 02:12:50;;;;;;;10.37;9.33;;;17.60;99.90;;;;;;5073409;28;20173;-72
2021/07/04 02:15:20;;;;;;;10.03;8.23;;;17.50;99.90;;;;;;5073259;28;20173;-71
2021/07/04 02:17:46;;;;;;;10.67;9.67;;;17.50;99.90;;;;;;5073361;28;20275;-72
2021/07/04 02:20:33;;;;;;;9.80;8.90;;;17.50;99.90;;;;;;5073323;28;20205;-72
2021/07/04 02:23:08;;;;;;;10.43;9.23;;;17.50;99.90;;;;;;5073586;28;20162;-72
2021/07/04 02:25:35;;;;;;;11.43;8.67;;;17.50;99.90;;;;;;5073698;28;20435;-72
2021/07/04 02:28:01;;;;;;;9.80;8.80;;;17.50;99.90;;;;;;5073409;28;20664;-72
2021/07/04 02:30:27;;;;;;;9.57;8.67;;;17.50;99.90;;;;;;5073052;28;20200;-72
2021/07/04 02:32:53;;;;;;;10.47;8.70;;;17.50;99.90;;;;;;5073413;28;20181;-72
2021/07/04 02:35:19;;;;;;;10.83;8.73;;;17.50;99.90;;;;;;5072077;28;20180;-72
2021/07/04 02:37:45;;;;;;;11.50;9.27;;;17.50;99.90;;;;;;5073262;28;20181;-72
2021/07/04 02:40:11;;;;;;;9.80;8.80;;;17.50;99.90;;;;;;5073634;28;20200;-72
2021/07/04 02:42:36;;;;;;;11.50;9.17;;;17.60;99.90;;;;;;5072648;28;20181;-72
2021/07/04 02:45:03;;;;;;;9.97;8.97;;;17.60;99.90;;;;;;5073422;28;20165;-72
2021/07/04 02:47:30;;;;;;;10.63;9.57;;;17.60;99.90;;;;;;5072832;28;20177;-72
2021/07/04 02:49:55;;;;;;;10.67;9.53;;;17.60;99.90;;;;;;5072532;28;20212;-72
2021/07/04 02:52:21;;;;;;;10.37;9.30;;;17.60;99.90;;;;;;5072214;28;20182;-72
2021/07/04 02:54:46;;;;;;;11.67;9.63;;;17.60;99.90;;;;;;5073083;28;20173;-69
2021/07/04 02:57:12;;;;;;;11.77;9.43;;;17.60;99.90;;;;;;5072834;28;20549;-72
2021/07/04 02:59:37;;;;;;;14.90;11.07;;;17.60;99.90;;;;;;5073206;28;20200;-72
2021/07/04 03:02:03;;;;;;;11.67;10.53;;;17.60;99.90;;;;;;5072011;28;20169;-72
2021/07/04 03:04:28;;;;;;;12.10;10.07;;;17.60;99.90;;;;;;5072549;28;20227;-72
2021/07/04 03:06:55;;;;;;;10.57;9.43;;;17.60;99.90;;;;;;5072961;28;20184;-72
2021/07/04 03:09:21;;;;;;;13.03;10.03;;;17.60;99.90;;;;;;5072468;28;20554;-72
2021/07/04 03:11:47;;;;;;;13.17;10.33;;;17.60;99.90;;;;;;5068072;28;20173;-72
2021/07/04 03:14:12;;;;;;;11.63;9.93;;;17.50;99.90;;;;;;5072741;28;20531;-72
2021/07/04 03:16:37;;;;;;;12.00;10.00;;;17.60;99.90;;;;;;5072603;28;20208;-72
2021/07/04 03:19:03;;;;;;;12.43;10.00;;;17.60;99.90;;;;;;5071978;28;20216;-72
2021/07/04 03:21:29;;;;;;;12.33;11.10;;;17.60;99.90;;;;;;5072172;28;20600;-72
2021/07/04 03:23:54;;;;;;;12.60;9.20;;;17.60;99.90;;;;;;5072445;28;20220;-71
2021/07/04 03:26:21;;;;;;;16.53;10.27;;;17.60;99.90;;;;;;5072415;28;20653;-72
2021/07/04 03:28:46;;;;;;;11.93;10.30;;;17.50;99.90;;;;;;5072601;28;20689;-72
2021/07/04 03:31:12;;;;;;;16.40;10.67;;;17.60;99.90;;;;;;5072032;28;20180;-73
2021/07/04 03:33:37;;;;;;;11.63;9.67;;;17.60;99.90;;;;;;5072645;28;20205;-72
2021/07/04 03:36:04;;;;;;;11.70;9.50;;;17.60;99.90;;;;;;5072075;28;20169;-72
2021/07/04 03:38:31;;;;;;;11.57;9.53;;;17.60;99.90;;;;;;5072516;28;20172;-71
2021/07/04 03:40:57;;;;;;;13.17;9.37;;;17.50;99.90;;;;;;5072595;28;20162;-71
2021/07/04 03:43:22;;;;;;;11.37;9.93;;;17.50;99.90;;;;;;5061291;28;20180;-71
2021/07/04 03:45:48;;;;;;;9.93;8.47;;;17.50;99.90;;;;;;5074645;28;20165;-70
2021/07/04 03:48:14;;;;;;;11.83;8.60;;;17.50;99.90;;;;;;5089675;28;20209;-71
2021/07/04 03:50:39;;;;;;;10.50;8.33;;;17.50;99.90;;;;;;5071328;28;20577;-71
2021/07/04 03:53:05;;;;;;;9.70;8.20;;;17.50;99.90;;;;;;5072013;28;20222;-71
2021/07/04 03:55:30;;;;;;;10.23;8.20;;;17.60;99.90;;;;;;5071748;28;20165;-71
2021/07/04 03:57:56;;;;;;;14.73;8.87;;;17.60;99.90;;;;;;5071811;28;20553;-71
2021/07/04 04:00:22;;;;;;;10.50;8.87;;;17.50;99.90;;;;;;5069941;28;20204;-71
2021/07/04 04:02:48;;;;;;;12.50;8.37;;;17.60;99.90;;;;;;5071086;28;20200;-71
2021/07/04 04:05:14;;;;;;;10.47;8.70;;;17.70;99.90;;;;;;5070447;28;20204;-71
2021/07/04 04:07:40;;;;;;;10.33;8.73;;;17.60;99.90;;;;;;5071438;28;20264;-71
2021/07/04 04:10:07;;;;;;;11.50;8.20;;;17.70;99.90;;;;;;5071260;28;20208;-71
2021/07/04 04:12:33;;;;;;;10.53;8.13;;;17.70;99.90;;;;;;5069480;28;20181;-71
2021/07/04 04:15:01;;;;;;;9.17;7.97;;;17.80;99.90;;;;;;5071678;28;20173;-71
2021/07/04 04:17:28;;;;;;;12.50;8.80;;;17.70;99.90;;;;;;5070812;28;20165;-71
2021/07/04 04:19:55;;;;;;;10.80;8.40;;;17.80;99.90;;;;;;5070758;28;20229;-71
2021/07/04 04:22:21;;;;;;;14.17;8.40;;;17.90;99.90;;;;;;5071277;28;20550;-71
2021/07/04 04:24:47;;;;;;;14.83;8.63;;;18.10;99.90;;;;;;5071297;28;20209;-71
2021/07/04 04:27:13;;;;;;;15.00;8.10;;;18.10;99.90;;;;;;5070920;28;20508;-71
2021/07/04 04:29:39;;;;;;;12.13;9.03;;;18.20;99.90;;;;;;5071184;28;20288;-71
2021/07/04 04:32:05;;;;;;;13.87;8.83;;;18.30;99.90;;;;;;5070931;28;20185;-71
2021/07/04 04:34:31;;;;;;;16.40;9.40;;;18.40;99.90;;;;;;5070554;28;20196;-71
2021/07/04 04:36:56;;;;;;;12.90;8.73;;;18.40;99.90;;;;;;5070964;28;20637;-71
2021/07/04 04:39:22;;;;;;;12.23;7.63;;;18.50;99.90;;;;;;5070574;28;20634;-71
2021/07/04 04:41:48;;;;;;;13.57;8.33;;;18.50;99.90;;;;;;5070246;28;20181;-71
2021/07/04 04:44:15;;;;;;;12.53;8.00;;;18.50;99.90;;;;;;5071252;28;20176;-71
2021/07/04 04:46:40;;;;;;;10.63;8.33;;;18.60;99.90;;;;;;5070600;28;20339;-71
2021/07/04 04:49:06;;;;;;;10.47;8.07;;;18.60;99.90;;;;;;5070532;28;20296;-71
2021/07/04 04:51:32;;;;;;;12.03;8.60;;;18.60;99.90;;;;;;5070533;28;20173;-71
2021/07/04 04:53:57;;;;;;;12.30;8.60;;;18.60;99.90;;;;;;5070943;28;20188;-71
2021/07/04 04:56:23;;;;;;;14.20;8.13;;;18.60;99.90;;;;;;5071122;28;20297;-71
2021/07/04 04:58:49;;;;;;;11.40;8.17;;;18.70;99.90;;;;;;5072682;28;20208;-71
2021/07/04 05:01:14;;;;;;;11.57;8.50;;;18.80;99.90;;;;;;5070508;28;20184;-71
2021/07/04 05:03:40;;;;;;;14.43;8.33;;;18.90;99.90;;;;;;5071191;28;20264;-71
2021/07/04 05:06:05;;;;;;;10.17;7.63;;;18.90;99.90;;;;;;5070454;28;20184;-71
2021/07/04 05:08:31;;;;;;;9.80;7.57;;;18.90;99.90;;;;;;5070610;28;20250;-72
2021/07/04 05:10:57;;;;;;;10.93;7.67;;;18.80;99.90;;;;;;5070720;28;20698;-71
2021/07/04 05:13:23;;;;;;;12.67;8.07;;;18.70;99.90;;;;;;5071309;28;20629;-71
2021/07/04 05:15:49;;;;;;;10.90;7.57;;;18.80;99.90;;;;;;5071374;28;20193;-71
2021/07/04 05:18:15;;;;;;;11.60;7.57;;;19.00;99.90;;;;;;5069543;28;20254;-71
2021/07/04 05:20:40;;;;;;;11.90;7.77;;;19.00;99.90;;;;;;5069937;28;20188;-71
2021/07/04 05:23:06;;;;;;;9.10;6.80;;;19.00;99.90;;;;;;5070595;28;20184;-71
2021/07/04 05:25:31;;;;;;;11.83;7.40;;;19.00;99.90;;;;;;5070598;28;20188;-71
2021/07/04 05:27:57;;;;;;;9.47;7.10;;;19.00;99.90;;;;;;5070352;28;20184;-70
2021/07/04 05:30:22;;;;;;;10.17;6.53;;;19.00;99.90;;;;;;5069643;28;20594;-70
2021/07/04 05:32:48;;;;;;;9.63;7.17;;;19.00;99.90;;;;;;5069111;28;20343;-71
2021/07/04 05:35:13;;;;;;;10.30;7.00;;;19.00;99.90;;;;;;5070657;28;20174;-71
2021/07/04 05:37:39;;;;;;;7.73;6.57;;;19.00;99.90;;;;;;5070094;28;20669;-70
2021/07/04 05:40:12;;;;;;;8.10;6.77;;;19.00;99.90;;;;;;5069707;28;20280;-70
2021/07/04 05:42:39;;;;;;;6.90;6.20;;;19.00;99.90;;;;;;5066283;28;20185;-71
2021/07/04 05:45:11;;;;;;;9.27;6.57;;;19.10;99.90;;;;;;5069919;28;20541;-71
2021/07/04 05:47:37;;;;;;;8.90;7.00;;;19.10;99.90;;;;;;5070439;28;20399;-71
2021/07/04 05:50:04;;;;;;;7.07;6.37;;;19.10;99.90;;;;;;5070122;28;20207;-69
2021/07/04 05:52:30;;;;;;;9.67;6.87;;;19.00;99.90;;;;;;5053122;28;20268;-69
2021/07/04 05:54:56;;;;;;;9.37;6.43;;;19.00;99.90;;;;;;5070500;28;20175;-70
2021/07/04 05:57:22;;;;;;;9.50;7.40;;;19.00;99.90;;;;;;5080357;28;20176;-70
2021/07/04 05:59:47;;;;;;;8.70;6.47;;;19.00;99.90;;;;;;5074310;28;20259;-70
2021/07/04 06:02:13;;;;;;;12.03;7.47;;;19.00;99.90;;;;;;5069617;28;20184;-71
2021/07/04 06:04:38;;;;;;;9.70;7.23;;;19.00;99.90;;;;;;5070390;28;20713;-70
2021/07/04 06:07:04;;;;;;;7.47;6.70;;;18.80;99.90;;;;;;5069535;28;20204;-70
2021/07/04 06:09:29;;;;;;;8.53;6.53;;;18.80;99.90;;;;;;5052015;28;20196;-70
2021/07/04 06:11:55;;;;;;;8.53;7.43;;;18.70;99.90;;;;;;5069586;28;20216;-71
2021/07/04 06:14:20;;;;;;;11.10;7.43;;;18.70;99.90;;;;;;5070121;28;20165;-71
2021/07/04 06:16:46;;;;;;;11.00;7.70;;;18.60;99.90;;;;;;5052217;28;20174;-71
2021/07/04 06:19:12;;;;;;;9.77;7.33;;;18.60;99.90;;;;;;5069862;28;20205;-71
2021/07/04 06:21:37;;;;;;;11.30;8.27;;;18.50;99.90;;;;;;5069189;28;20177;-70
2021/07/04 06:24:03;;;;;;;15.47;8.40;;;18.50;99.90;;;;;;5069709;28;20234;-69
2021/07/04 06:26:29;;;;;;;11.37;8.17;;;18.50;99.90;;;;;;5070071;28;20180;-69
2021/07/04 06:28:54;;;;;;;9.03;7.53;;;18.60;99.90;;;;;;5072766;28;20697;-69
2021/07/04 06:31:20;;;;;;;10.13;7.63;;;18.70;99.90;;;;;;5072958;28;20520;-69
2021/07/04 06:33:46;;;;;;;11.83;8.20;;;18.70;99.90;;;;;;5073830;28;20171;-69
2021/07/04 06:36:12;;;;;;;8.03;7.23;;;18.70;99.90;;;;;;5073289;28;20170;-69
2021/07/04 06:38:38;;;;;;;10.10;7.30;;;18.70;99.90;;;;;;5073781;28;20623;-69
2021/07/04 06:41:04;;;;;;;10.50;7.73;;;18.70;99.90;;;;;;5072699;28;20203;-71
2021/07/04 06:43:29;;;;;;;9.87;7.33;;;18.60;99.90;;;;;;5073520;28;20177;-70
2021/07/04 06:45:55;;;;;;;9.03;7.50;;;18.70;99.90;;;;;;5055780;28;20591;-71
2021/07/04 06:48:20;;;;;;;9.53;7.43;;;18.70;99.90;;;;;;5082825;28;20180;-71
2021/07/04 06:50:46;;;;;;;16.67;8.13;;;18.80;99.90;;;;;;5072836;28;20282;-68
2021/07/04 06:53:12;;;;;;;14.23;8.73;;;18.70;99.90;;;;;;5073356;28;20213;-71
2021/07/04 06:55:37;;;;;;;10.20;8.87;;;18.60;99.90;;;;;;5075469;28;20260;-71
2021/07/04 06:58:03;;;;;;;11.37;8.07;;;18.60;99.90;;;;;;5080285;28;20591;-70
2021/07/04 07:00:28;;;;;;;10.83;8.07;;;18.60;99.90;;;;;;5072875;28;20197;-71
2021/07/04 07:02:54;;;;;;;11.33;8.17;;;18.70;99.90;;;;;;5073285;28;20196;-69
2021/07/04 07:05:19;;;;;;;13.23;8.73;;;18.70;99.90;;;;;;5073224;28;20245;-69
2021/07/04 07:07:45;;;;;;;10.93;9.67;;;18.70;99.90;;;;;;5073028;28;20173;-69
2021/07/04 07:10:12;;;;;;;12.50;9.77;;;18.70;99.90;;;;;;5085903;28;20223;-68
2021/07/04 07:12:41;;;;;;;11.53;10.07;;;18.80;99.90;;;;;;5091747;28;20179;-70
2021/07/04 07:15:08;;;;;;;14.30;9.83;;;18.90;99.90;;;;;;5092711;28;20168;-71
2021/07/04 07:17:34;;;;;;;10.43;9.03;;;18.90;99.90;;;;;;5085513;28;20306;-71
2021/07/04 07:19:59;;;;;;;11.90;10.00;;;18.90;99.90;;;;;;5087757;22;20304;-71
2021/07/04 07:22:25;;;;;;;13.53;9.67;;;18.90;99.90;;;;;;5067827;28;20177;-74
2021/07/04 07:24:51;;;;;;;10.43;9.40;;;18.90;99.90;;;;;;5071824;28;20165;-78
2021/07/04 07:27:17;;;;;;;12.43;10.70;;;18.80;99.90;;;;;;5072559;28;20191;-74
2021/07/04 07:29:43;;;;;;;15.27;9.77;;;18.90;99.90;;;;;;5072590;28;20213;-74
2021/07/04 07:32:09;;;;;;;13.33;9.90;;;18.90;99.90;;;;;;5072181;28;20223;-74
2021/07/04 07:34:34;;;;;;;14.60;10.57;;;18.90;99.90;;;;;;5072083;28;20181;-72
2021/07/04 07:37:00;;;;;;;13.40;10.13;;;19.00;99.90;;;;;;5072230;28;20252;-69
2021/07/04 07:39:26;;;;;;;16.73;9.90;;;19.10;99.90;;;;;;5071125;28;20210;-72
2021/07/04 07:41:51;;;;;;;11.43;9.77;;;19.20;99.90;;;;;;5071015;28;20663;-73
2021/07/04 07:44:17;;;;;;;10.03;8.83;;;19.30;99.90;;;;;;5054296;28;20181;-72
2021/07/04 07:46:43;;;;;;;11.77;9.30;;;19.40;99.90;;;;;;5072653;28;20180;-72
2021/07/04 07:49:09;;;;;;;9.47;8.27;;;19.30;99.90;;;;;;5072520;28;20204;-72
2021/07/04 07:51:35;;;;;;;8.70;7.87;;;19.40;99.90;;;;;;5071443;28;20260;-73
2021/07/04 07:54:01;;;;;;;9.47;7.87;;;19.40;99.90;;;;;;5072303;28;20173;-71
2021/07/04 07:56:27;;;;;;;8.70;7.80;;;19.30;99.90;;;;;;5070164;28;20181;-77
2021/07/04 07:58:53;;;;;;;9.53;7.50;;;19.20;99.90;;;;;;5072407;28;20560;-77
2021/07/04 08:01:18;;;;;;;8.73;7.43;;;19.20;99.90;;;;;;5070229;28;20229;-74
2021/07/04 08:03:44;;;;;;;9.30;7.17;;;19.20;99.90;;;;;;5077481;28;20651;-79
2021/07/04 08:06:10;;;;;;;8.63;7.50;;;19.30;99.90;;;;;;5072267;28;20177;-76
2021/07/04 08:08:36;;;;;;;7.83;7.07;;;19.50;99.90;;;;;;5072170;28;20184;-75
2021/07/04 08:11:03;;;;;;;7.33;6.63;;;19.70;99.90;;;;;;5072022;28;20203;-74
2021/07/04 08:13:28;;;;;;;8.93;6.67;;;20.00;99.90;;;;;;5073013;28;20229;-74
2021/07/04 08:15:54;;;;;;;7.40;6.80;;;20.20;99.90;;;;;;5072209;28;20182;-76
2021/07/04 08:18:21;;;;;;;7.67;6.30;;;20.50;99.90;;;;;;5069269;28;20203;-76
2021/07/04 08:20:46;;;;;;;7.20;6.37;;;20.70;99.90;;;;;;5075392;28;20236;-76
2021/07/04 08:23:12;;;;;;;6.20;5.60;;;21.00;99.90;;;;;;5072571;28;20194;-75
2021/07/04 08:25:38;;;;;;;6.43;5.83;;;21.00;99.90;;;;;;5053913;28;20258;-75
2021/07/04 08:28:03;;;;;;;9.00;5.90;;;21.10;99.90;;;;;;5054215;28;20652;-74
2021/07/04 08:30:29;;;;;;;6.37;5.83;;;21.00;99.90;;;;;;5071379;28;20208;-75
2021/07/04 08:32:54;;;;;;;8.00;5.40;;;20.90;99.90;;;;;;5072384;28;20596;-75
2021/07/04 08:35:20;;;;;;;8.77;5.97;;;20.80;99.90;;;;;;5067309;28;20365;-75
2021/07/04 08:37:46;;;;;;;6.40;5.53;;;20.80;99.90;;;;;;5062230;28;20181;-75
2021/07/04 08:40:12;;;;;;;8.13;6.03;;;20.90;99.90;;;;;;5054447;28;20200;-76
2021/07/04 08:42:38;;;;;;;6.13;5.53;;;20.80;99.90;;;;;;5053994;28;20601;-75
2021/07/04 08:45:05;;;;;;;10.23;6.03;;;20.80;99.90;;;;;;5074289;28;20210;-75
2021/07/04 08:47:31;;;;;;;6.73;5.03;;;20.70;99.90;;;;;;5075001;28;20308;-76
2021/07/04 08:49:56;;;;;;;9.37;5.73;;;20.70;99.90;;;;;;5071811;28;20617;-75
2021/07/04 08:52:22;;;;;;;7.73;5.90;;;20.80;99.90;;;;;;5071258;28;20649;-75
2021/07/04 08:54:48;;;;;;;8.70;5.80;;;20.90;99.90;;;;;;5071944;28;20173;-74
2021/07/04 08:57:17;;;;;;;9.47;5.67;;;20.90;99.90;;;;;;5054337;28;20183;-75
2021/07/04 08:59:45;;;;;;;5.70;5.10;;;20.80;99.90;;;;;;5072336;28;20206;-76
2021/07/04 09:02:14;;;;;;;9.13;5.60;;;20.90;99.90;;;;;;5071728;28;20176;-77
2021/07/04 09:04:58;;;;;;;8.77;5.13;;;20.90;99.90;;;;;;5072687;28;20635;-77
2021/07/04 09:07:30;;;;;;;5.57;5.00;;;20.70;99.90;;;;;;5072098;28;20632;-76
2021/07/04 09:09:57;;;;;;;6.60;5.20;;;20.80;99.90;;;;;;5071942;28;20206;-75
2021/07/04 09:12:46;;;;;;;9.43;5.43;;;20.90;99.90;;;;;;5061495;28;20866;-76
2021/07/04 09:15:20;;;;;;;6.77;4.80;;;21.00;99.90;;;;;;5052974;28;20178;-76
2021/07/04 09:17:49;;;;;;;7.00;5.10;;;21.20;99.90;;;;;;5062261;28;20175;-77
2021/07/04 09:20:33;;;;;;;8.73;5.80;;;21.20;99.90;;;;;;5071624;28;20203;-77
2021/07/04 09:23:01;;;;;;;10.07;5.53;;;20.90;99.90;;;;;;5072641;28;20175;-76
2021/07/04 09:25:28;;;;;;;8.80;5.60;;;20.90;99.90;;;;;;5072583;28;20404;-74
2021/07/04 09:28:05;;;;;;;8.40;5.43;;;21.20;99.90;;;;;;5071345;28;20192;-75
2021/07/04 09:30:40;;;;;;;7.23;5.33;;;21.40;99.90;;;;;;5070472;28;20210;-75
2021/07/04 09:33:16;;;;;;;8.83;5.67;;;21.50;99.90;;;;;;5071315;28;20175;-75
2021/07/04 09:35:53;;;;;;;8.00;5.80;;;21.40;99.90;;;;;;5072781;28;20163;-76
2021/07/04 09:38:18;;;;;;;9.87;6.00;;;21.10;99.90;;;;;;5085560;28;20183;-75
2021/07/04 09:40:46;;;;;;;8.53;5.70;;;21.20;99.90;;;;;;5095441;28;20187;-75
2021/07/04 09:43:17;;;;;;;8.30;6.07;;;21.30;99.90;;;;;;5094296;28;20174;-74
2021/07/04 09:46:05;;;;;;;12.57;6.30;;;21.60;99.90;;;;;;5093805;28;20185;-74
2021/07/04 09:48:36;;;;;;;8.60;5.57;;;21.60;99.90;;;;;;5115547;28;20190;-74
2021/07/04 09:51:03;;;;;;;6.73;5.33;;;21.40;99.90;;;;;;5098395;28;20177;-75
2021/07/04 09:53:48;;;;;;;7.90;5.80;;;21.60;99.90;;;;;;5095532;28;20171;-75
2021/07/04 09:56:15;;;;;;;8.83;5.77;;;21.90;99.90;;;;;;5076345;28;20162;-74
2021/07/04 09:58:42;;;;;;;11.60;6.30;;;22.10;99.90;;;;;;5071414;28;20172;-74
2021/07/04 10:01:08;;;;;;;7.27;6.20;;;21.70;99.90;;;;;;5070508;28;20615;-75
2021/07/04 10:03:41;;;;;;;9.27;6.20;;;21.20;99.90;;;;;;5076621;28;20178;-75
2021/07/04 10:06:09;;;;;;;10.83;5.93;;;21.10;99.90;;;;;;5075261;28;20471;-75
2021/07/04 10:08:37;;;;;;;8.97;5.97;;;21.20;99.90;;;;;;5057007;28;20173;-75
2021/07/04 10:11:04;;;;;;;7.73;5.70;;;21.10;99.90;;;;;;5074665;28;20578;-74
2021/07/04 10:13:31;;;;;;;6.40;5.75;;;21.10;99.90;;;;;;5075720;28;20177;-75
2021/07/04 10:15:57;;;;;;;7.77;6.23;;;21.10;99.90;;;;;;5076776;28;20188;-75
2021/07/04 10:18:23;;;;;;;7.57;5.70;;;21.30;99.90;;;;;;5057070;28;20182;-74
2021/07/04 10:20:51;;;;;;;9.43;5.80;;;21.40;99.90;;;;;;5056449;28;20210;-77
2021/07/04 10:23:19;;;;;;;7.60;5.50;;;21.60;99.90;;;;;;5075982;28;20190;-73
2021/07/04 10:25:46;;;;;;;7.90;5.20;;;21.60;99.90;;;;;;5078507;28;20166;-74
2021/07/04 10:28:15;;;;;;;7.15;5.88;;;21.50;99.90;;;;;;5073385;28;20212;-74
2021/07/04 10:30:42;;;;;;;7.63;5.88;;;21.60;99.90;;;;;;5053439;28;20729;-74
2021/07/04 10:33:26;;;;;;;10.75;5.70;;;21.90;99.90;;;;;;5053428;28;20222;-74
2021/07/04 10:36:05;;;;;;;7.03;5.18;;;21.90;99.90;;;;;;5053155;28;20239;-73
2021/07/04 10:38:46;;;;;;;6.00;5.30;;;22.00;99.90;;;;;;5068484;28;20183;-73
2021/07/04 10:41:30;;;;;;;6.10;5.40;;;22.00;99.90;;;;;;5073665;28;20169;-74
2021/07/04 10:44:09;;;;;;;7.70;6.25;;;22.20;99.90;;;;;;5074583;28;20162;-73
2021/07/04 10:46:46;;;;;;;5.03;4.53;;;22.40;99.90;;;;;;5056020;28;20247;-74
2021/07/04 10:49:31;;;;;;;6.32;4.75;;;22.40;99.90;;;;;;5056713;28;20218;-74
2021/07/04 10:51:59;;;;;;;5.53;4.82;;;22.50;99.90;;;;;;5074657;28;20431;-73
2021/07/04 10:54:46;;;;;;;5.75;4.68;;;22.80;99.90;;;;;;5078893;28;20179;-73
2021/07/04 10:57:16;;;;;;;4.95;4.40;;;22.90;99.90;;;;;;5075926;28;20603;-74
2021/07/04 11:00:04;;;;;;;5.47;4.40;;;22.70;99.90;;;;;;5075793;28;20216;-74
2021/07/04 11:02:50;;;;;;;5.18;3.53;;;22.50;99.90;;;;;;5073438;28;20213;-74
2021/07/04 11:05:16;;;;;;;5.88;3.70;;;22.20;99.90;;;;;;5073373;28;20224;-74
2021/07/04 11:08:24;;;;;;;5.03;4.53;;;22.80;99.90;;;;;;5074382;28;20575;-74
2021/07/04 11:10:49;;;;;;;8.32;4.70;;;23.00;99.90;;;;;;5073203;28;20210;-74
2021/07/04 11:13:15;;;;;;;4.50;4.20;;;23.30;99.90;;;;;;5073775;28;20518;-74
2021/07/04 11:15:41;;;;;;;4.00;3.60;;;23.30;99.90;;;;;;5074009;28;20171;-73
2021/07/04 11:18:09;;;;;;;6.20;3.80;;;23.50;99.90;;;;;;5086802;28;20157;-73
2021/07/04 11:20:41;;;;;;;5.68;3.78;;;23.30;99.90;;;;;;5086385;28;20216;-74
2021/07/04 11:23:08;;;;;;;5.45;3.72;;;23.50;99.90;;;;;;5055981;28;20176;-74
2021/07/04 11:25:43;;;;;;;4.57;4.10;;;23.40;99.90;;;;;;5073487;28;20172;-73
2021/07/04 11:28:15;;;;;;;5.82;4.13;;;23.70;99.90;;;;;;5055764;28;20209;-74
2021/07/04 11:30:41;;;;;;;4.78;4.32;;;23.80;99.90;;;;;;5072599;28;20211;-74
2021/07/04 11:33:31;;;;;;;3.90;3.60;;;24.10;99.90;;;;;;5056062;28;20180;-74
2021/07/04 11:36:14;;;;;;;4.10;3.70;;;23.60;99.90;;;;;;5074200;28;20169;-73
2021/07/04 11:38:41;;;;;;;5.57;3.80;;;23.70;99.90;;;;;;5073050;28;20173;-73
2021/07/04 11:41:17;;;;;;;4.35;3.72;;;23.90;99.90;;;;;;5072255;28;20578;-73
2021/07/04 11:43:44;;;;;;;4.05;3.65;;;23.70;99.90;;;;;;5072914;28;20188;-73
2021/07/04 11:46:13;;;;;;;6.40;4.05;;;23.60;99.90;;;;;;5072842;28;20165;-73
2021/07/04 11:48:46;;;;;;;4.93;3.80;;;23.50;99.90;;;;;;5071024;28;20170;-73
2021/07/04 11:51:20;;;;;;;4.57;3.90;;;23.30;99.90;;;;;;5072623;28;20184;-74
2021/07/04 11:53:47;;;;;;;4.35;3.95;;;23.30;99.90;;;;;;5072529;28;20170;-74
2021/07/04 11:56:14;;;;;;;5.57;4.03;;;23.10;99.90;;;;;;5072787;28;20176;-75
2021/07/04 11:58:40;;;;;;;5.28;4.25;;;22.90;99.90;;;;;;5073007;28;20172;-75
2021/07/04 12:01:15;;;;;;;5.03;4.45;;;23.10;99.90;;;;;;5072426;28;20163;-75
2021/07/04 12:03:41;;;;;;;4.88;3.97;;;23.30;99.90;;;;;;5054751;28;20181;-74
2021/07/04 12:06:08;;;;;;;4.53;3.90;;;23.10;99.90;;;;;;5072381;28;20542;-74
2021/07/04 12:08:57;;;;;;;4.00;3.65;;;23.20;99.90;;;;;;5072605;28;20168;-73
2021/07/04 12:11:43;;;;;;;4.43;3.67;;;23.20;99.90;;;;;;5071575;28;20203;-74
2021/07/04 12:14:22;;;;;;;4.00;3.70;;;23.30;99.90;;;;;;5054455;28;20173;-72
2021/07/04 12:16:47;;;;;;;3.53;3.15;;;24.10;99.90;;;;;;5072591;28;20528;-74
2021/07/04 12:19:50;;;;;;;4.00;3.70;;;24.30;99.90;;;;;;5072623;28;20236;-74
2021/07/04 12:22:26;;;;;;;3.95;3.42;;;24.30;99.90;;;;;;5014563;28;20183;-74
2021/07/04 12:24:53;;;;;;;3.65;3.30;;;24.00;99.90;;;;;;5073186;28;20169;-74
2021/07/04 12:27:31;;;;;;;5.72;3.30;;;23.80;99.90;;;;;;5072106;28;20181;-74
2021/07/04 12:30:09;;;;;;;3.70;3.30;;;23.50;99.90;;;;;;5073688;28;20203;-74
2021/07/04 12:32:50;;;;;;;4.22;3.83;;;24.30;99.90;;;;;;5072509;28;20192;-74
2021/07/04 12:35:40;;;;;;;3.88;3.58;;;24.20;99.90;;;;;;5073588;28;20211;-74
2021/07/04 12:38:13;;;;;;;4.28;3.30;;;23.60;99.90;;;;;;5074181;28;20160;-74
2021/07/04 12:41:09;;;;;;;4.32;3.60;;;23.40;99.90;;;;;;5073581;28;20192;-73
2021/07/04 12:43:41;;;;;;;3.53;3.22;;;23.70;99.90;;;;;;5074571;28;20190;-73
2021/07/04 12:46:19;;;;;;;4.55;3.30;;;23.90;99.90;;;;;;5075002;28;20655;-74
2021/07/04 12:48:48;;;;;;;3.50;3.05;;;23.50;99.90;;;;;;5073291;28;20168;-74
2021/07/04 12:51:21;;;;;;;3.20;2.88;;;23.50;99.90;;;;;;5074003;28;20655;-74
2021/07/04 12:53:47;;;;;;;3.60;3.25;;;23.70;99.90;;;;;;5074415;28;20687;-74
2021/07/04 12:56:31;;;;;;;4.80;3.70;;;23.90;99.90;;;;;;5074320;28;20251;-74
2021/07/04 12:58:57;;;;;;;3.40;3.10;;;24.20;99.90;;;;;;5075013;28;20552;-75
2021/07/04 13:01:27;;;;;;;4.80;3.88;;;24.40;99.90;;;;;;5073891;28;20305;-73
2021/07/04 13:04:09;;;;;;;5.05;4.20;;;24.30;99.90;;;;;;5074715;28;20185;-74